Ferdinand, Indiana
Current Conditions -  °F | °C
As of 1:35 PM on Thursday 27 Nov 2014 (Local Time) from KHNB Reporting Station
Overcast Overcast  
Wind Chill: 19°   Ceiling: 2300
Heat Index: 30°   Visibility: 8mi
Dew Point: 21°   Wind: 15mph
Humidity: 69%   Direction: 300°WNW
Pressure: 30.42"   Gusts: 21mph
Location:  38.22°N, 86.86°W
Report Text: KHNB 271935Z AUTO 30013G18KT 8SM OVC023 M01/M06 A3042 RMK AO1
Loading
Personal Weather Stations






























Interactive Weather Map New forecast layout! Learn more

10-Day Weather Forecast

Advertisements
Track Severe Weather on mobile